Aviation Digital Data Service (ADDS)

Output produced by METARs form (1509 UTC 19 January 2018)
found at http://aviationweather.gov/adds/metars/
 
KSGR 191429Z 1914/2012 07005KT P6SM VCSH OVC040 
     TEMPO 1914/1916 4SM SHRA 
     FM191630 07005KT P6SM VCSH OVC025 
     FM191900 13010KT P6SM OVC035 
     FM200000 11007KT P6SM OVC015 
     FM200300 13008KT 5SM BR OVC007